Time;durP1;ratioP1;P1;durP2;ratioP2;P2;SDS_P1;SDS_P2;PMS_P1;PMS_P2;Temp;Humidity;BMP_temperature;BMP_pressure;BME280_temperature;BME280_humidity;BME280_pressure;Samples;Min_cycle;Max_cycle;Signal;HPM_P1;HPM_P2
2023/02/09 00:00:36;;;;;;;0.30;0.30;;;;;;;;;;4147184;28;20057;-42
2023/02/09 00:02:38;;;;;;;0.40;0.30;;;;;;;;;;4146987;28;20050;-44
2023/02/09 00:04:39;;;;;;;1.05;0.30;;;;;;;;;;4128942;28;20050;-42
2023/02/09 00:06:41;;;;;;;0.40;0.30;;;;;;;;;;4146964;28;20468;-44
2023/02/09 00:08:42;;;;;;;0.70;0.45;;;;;;;;;;4146357;28;20058;-44
2023/02/09 00:10:44;;;;;;;0.52;0.35;;;;;;;;;;4146677;28;20501;-42
2023/02/09 00:15:05;;;;;;;;;;;;;;;;;;4146277;28;20053;-43
2023/02/09 00:17:07;;;;;;;0.32;0.32;;;;;;;;;;4146881;28;19921;-43
2023/02/09 00:19:10;;;;;;;1.52;0.40;;;;;;;;;;4128714;28;20087;-42
2023/02/09 00:21:11;;;;;;;0.43;0.30;;;;;;;;;;4146837;28;20108;-43
2023/02/09 00:23:13;;;;;;;0.30;0.30;;;;;;;;;;4146061;28;20049;-43
2023/02/09 00:25:14;;;;;;;0.80;0.30;;;;;;;;;;4147956;28;20057;-43
2023/02/09 00:27:15;;;;;;;0.70;0.40;;;;;;;;;;4150140;28;20061;-43
2023/02/09 00:29:21;;;;;;;0.30;0.17;;;;;;;;;;4149734;28;20076;-43
2023/02/09 00:31:24;;;;;;;1.73;0.40;;;;;;;;;;4149189;28;20058;-43
2023/02/09 00:33:25;;;;;;;0.75;0.40;;;;;;;;;;4149672;28;20064;-44
2023/02/09 00:35:27;;;;;;;0.35;0.30;;;;;;;;;;4149824;28;20053;-43
2023/02/09 00:37:28;;;;;;;0.55;0.47;;;;;;;;;;4150004;28;20061;-43
2023/02/09 00:39:29;;;;;;;0.40;0.40;;;;;;;;;;4149713;28;20061;-43
2023/02/09 00:43:51;;;;;;;0.40;0.40;;;;;;;;;;4134902;28;20058;-43
2023/02/09 00:45:53;;;;;;;0.45;0.32;;;;;;;;;;4151159;28;20502;-43
2023/02/09 00:47:56;;;;;;;0.32;0.30;;;;;;;;;;4151210;28;20054;-44
2023/02/09 00:49:58;;;;;;;1.27;0.40;;;;;;;;;;4149358;28;20115;-43
2023/02/09 00:52:01;;;;;;;0.32;0.32;;;;;;;;;;4132510;28;20058;-43
2023/02/09 00:54:02;;;;;;;0.40;0.30;;;;;;;;;;4149326;28;20410;-42
2023/02/09 00:56:04;;;;;;;0.45;0.40;;;;;;;;;;4149305;28;20108;-43
2023/02/09 00:58:05;;;;;;;0.57;0.40;;;;;;;;;;4149545;28;20053;-43
2023/02/09 01:00:07;;;;;;;0.30;0.30;;;;;;;;;;4131940;28;20054;-43
2023/02/09 01:02:09;;;;;;;0.30;0.30;;;;;;;;;;4149375;28;20057;-43
2023/02/09 01:04:10;;;;;;;0.40;0.35;;;;;;;;;;4148746;28;20054;-43
2023/02/09 01:06:11;;;;;;;0.50;0.35;;;;;;;;;;4148878;28;20124;-43
2023/02/09 01:08:12;;;;;;;0.30;0.28;;;;;;;;;;4149218;28;20061;-43
2023/02/09 01:10:14;;;;;;;0.57;0.30;;;;;;;;;;4149242;28;20460;-43
2023/02/09 01:12:16;;;;;;;0.68;0.30;;;;;;;;;;4115624;28;20051;-43
2023/02/09 01:14:17;;;;;;;0.40;0.30;;;;;;;;;;4148539;28;20062;-42
2023/02/09 01:16:19;;;;;;;0.95;0.40;;;;;;;;;;4149536;28;20054;-43
2023/02/09 01:18:20;;;;;;;0.70;0.40;;;;;;;;;;4118057;28;20106;-43
2023/02/09 01:20:22;;;;;;;0.40;0.40;;;;;;;;;;4143054;28;20129;-43
2023/02/09 01:22:25;;;;;;;0.50;0.45;;;;;;;;;;4148613;28;20053;-43
2023/02/09 01:24:26;;;;;;;0.32;0.30;;;;;;;;;;4148887;28;20057;-43
2023/02/09 01:26:28;;;;;;;0.68;0.30;;;;;;;;;;4149549;28;20054;-43
2023/02/09 01:28:29;;;;;;;0.38;0.35;;;;;;;;;;4131513;28;20054;-43
2023/02/09 01:30:30;;;;;;;0.70;0.40;;;;;;;;;;4148744;28;20053;-43
2023/02/09 01:32:34;;;;;;;1.40;0.40;;;;;;;;;;4131624;28;20198;-43
2023/02/09 01:34:36;;;;;;;0.38;0.30;;;;;;;;;;4115049;28;20051;-43
2023/02/09 01:36:38;;;;;;;0.90;0.40;;;;;;;;;;4148725;28;20517;-43
2023/02/09 01:38:39;;;;;;;1.33;0.43;;;;;;;;;;4148802;28;20112;-43
2023/02/09 01:40:47;;;;;;;0.30;0.22;;;;;;;;;;4148688;28;20421;-42
2023/02/09 01:42:49;;;;;;;0.77;0.40;;;;;;;;;;4148976;28;20065;-43
2023/02/09 01:45:15;;;;;;;0.77;0.30;;;;;;;;;;4148777;28;20050;-43
2023/02/09 01:47:18;;;;;;;0.40;0.30;;;;;;;;;;4119503;28;20138;-43
2023/02/09 01:49:22;;;;;;;0.45;0.40;;;;;;;;;;4131139;28;20054;-43
2023/02/09 01:51:23;;;;;;;1.10;0.45;;;;;;;;;;4131619;28;20109;-43
2023/02/09 01:53:26;;;;;;;0.38;0.38;;;;;;;;;;4148432;28;20119;-43
2023/02/09 01:55:31;;;;;;;0.45;0.35;;;;;;;;;;4131018;28;20109;-43
2023/02/09 01:57:36;;;;;;;0.93;0.50;;;;;;;;;;4131318;28;20116;-43
2023/02/09 01:59:39;;;;;;;0.40;0.40;;;;;;;;;;4114980;28;20138;-43
2023/02/09 02:01:42;;;;;;;0.40;0.40;;;;;;;;;;4115331;28;20130;-43
2023/02/09 02:03:44;;;;;;;0.95;0.28;;;;;;;;;;4147496;28;20113;-45
2023/02/09 02:05:49;;;;;;;0.57;0.40;;;;;;;;;;4115125;28;20055;-43
2023/02/09 02:07:58;;;;;;;0.73;0.50;;;;;;;;;;4148297;28;20058;-43
2023/02/09 02:10:01;;;;;;;0.50;0.40;;;;;;;;;;4114775;28;20496;-43
2023/02/09 02:12:03;;;;;;;1.15;0.40;;;;;;;;;;4130369;28;20480;-43
2023/02/09 02:14:04;;;;;;;0.30;0.30;;;;;;;;;;4153538;28;20057;-43
2023/02/09 02:16:29;;;;;;;0.73;0.32;;;;;;;;;;4130921;28;20076;-43
2023/02/09 02:18:44;;;;;;;0.73;0.38;;;;;;;;;;4117400;28;20334;-43
2023/02/09 02:21:32;;;;;;;0.45;0.38;;;;;;;;;;4148126;28;20062;-43
2023/02/09 02:23:53;;;;;;;;;;;;;;;;;;4125938;28;20428;-43
2023/02/09 02:26:32;;;;;;;0.40;0.30;;;;;;;;;;4148162;28;19987;-43
2023/02/09 02:28:43;;;;;;;0.65;0.38;;;;;;;;;;4111992;28;20089;-43
2023/02/09 02:30:53;;;;;;;0.47;0.38;;;;;;;;;;4130412;28;20050;-43
2023/02/09 02:33:14;;;;;;;0.50;0.50;;;;;;;;;;4130311;28;20061;-43
2023/02/09 02:35:30;;;;;;;0.43;0.22;;;;;;;;;;4147936;28;20104;-43
2023/02/09 02:37:40;;;;;;;0.50;0.43;;;;;;;;;;4148038;28;20100;-43
2023/02/09 02:39:49;;;;;;;0.85;0.30;;;;;;;;;;4147410;28;20541;-43
2023/02/09 02:44:22;;;;;;;0.30;0.30;;;;;;;;;;4144775;28;20131;-43
2023/02/09 02:46:23;;;;;;;1.27;0.50;;;;;;;;;;4130236;28;20493;-43
2023/02/09 02:48:44;;;;;;;0.77;0.50;;;;;;;;;;4146365;28;20058;-43
2023/02/09 02:51:07;;;;;;;0.30;0.30;;;;;;;;;;4148126;28;20119;-43
2023/02/09 02:53:10;;;;;;;0.65;0.40;;;;;;;;;;4147611;28;20093;-43
2023/02/09 02:55:14;;;;;;;1.33;0.65;;;;;;;;;;4130322;28;20062;-43
2023/02/09 02:57:18;;;;;;;1.27;0.60;;;;;;;;;;4147778;28;20497;-43
2023/02/09 02:59:26;;;;;;;0.73;0.30;;;;;;;;;;4097840;29;20498;-43
2023/02/09 03:01:32;;;;;;;0.45;0.30;;;;;;;;;;4130553;28;20061;-43
2023/02/09 03:03:35;;;;;;;0.47;0.40;;;;;;;;;;4121985;28;20090;-43
2023/02/09 03:05:37;;;;;;;0.60;0.50;;;;;;;;;;4147396;28;20061;-43
2023/02/09 03:07:38;;;;;;;0.75;0.40;;;;;;;;;;4128647;28;20050;-43
2023/02/09 03:09:51;;;;;;;0.20;0.20;;;;;;;;;;4130326;28;20061;-43
2023/02/09 03:11:56;;;;;;;0.98;0.40;;;;;;;;;;4149658;28;20103;-43
2023/02/09 03:14:20;;;;;;;0.77;0.40;;;;;;;;;;4149522;28;20053;-42
2023/02/09 03:16:43;;;;;;;0.30;0.30;;;;;;;;;;4147540;28;20414;-43
2023/02/09 03:19:05;;;;;;;1.10;0.45;;;;;;;;;;4146894;28;20058;-43
2023/02/09 03:21:14;;;;;;;0.50;0.40;;;;;;;;;;4121361;28;20085;-43
2023/02/09 03:23:31;;;;;;;0.38;0.30;;;;;;;;;;4113637;28;20407;-43
2023/02/09 03:25:40;;;;;;;0.40;0.40;;;;;;;;;;4146181;28;20053;-43
2023/02/09 03:28:07;;;;;;;0.60;0.50;;;;;;;;;;4130168;28;20058;-43
2023/02/09 03:30:10;;;;;;;0.50;0.30;;;;;;;;;;4129700;28;20050;-43
2023/02/09 03:32:13;;;;;;;0.22;0.20;;;;;;;;;;4146887;28;20057;-42
2023/02/09 03:34:15;;;;;;;0.50;0.35;;;;;;;;;;4129278;28;20394;-43
2023/02/09 03:36:18;;;;;;;0.38;0.35;;;;;;;;;;4147193;28;20175;-43
2023/02/09 03:38:19;;;;;;;0.75;0.35;;;;;;;;;;4146622;28;20112;-43
2023/02/09 03:40:20;;;;;;;0.68;0.60;;;;;;;;;;4146777;28;20103;-44
2023/02/09 03:42:21;;;;;;;0.45;0.30;;;;;;;;;;4146816;28;20545;-43
2023/02/09 03:44:26;;;;;;;0.50;0.40;;;;;;;;;;4146919;28;20058;-42
2023/02/09 03:46:27;;;;;;;0.73;0.40;;;;;;;;;;4147152;28;20053;-43
2023/02/09 03:48:28;;;;;;;0.70;0.30;;;;;;;;;;4146090;28;20409;-42
2023/02/09 03:50:31;;;;;;;0.60;0.40;;;;;;;;;;4146929;28;20065;-43
2023/02/09 03:52:32;;;;;;;0.82;0.47;;;;;;;;;;4129156;28;20053;-43
2023/02/09 03:54:34;;;;;;;0.55;0.47;;;;;;;;;;4146691;28;20062;-42
2023/02/09 03:56:36;;;;;;;0.30;0.30;;;;;;;;;;4147208;28;20057;-43
2023/02/09 03:58:37;;;;;;;1.08;0.50;;;;;;;;;;4146450;28;20061;-43
2023/02/09 04:00:38;;;;;;;0.68;0.50;;;;;;;;;;4146819;28;20065;-43
2023/02/09 04:02:40;;;;;;;0.50;0.40;;;;;;;;;;4147138;28;20056;-42
2023/02/09 04:04:41;;;;;;;0.70;0.40;;;;;;;;;;4128921;28;20058;-43
2023/02/09 04:06:43;;;;;;;0.50;0.50;;;;;;;;;;4146475;28;20502;-43
2023/02/09 04:08:44;;;;;;;0.55;0.40;;;;;;;;;;4146296;28;20108;-43
2023/02/09 04:10:45;;;;;;;0.40;0.35;;;;;;;;;;4146569;28;20098;-43
2023/02/09 04:12:47;;;;;;;0.40;0.40;;;;;;;;;;4151772;28;20058;-42
2023/02/09 04:14:48;;;;;;;0.50;0.47;;;;;;;;;;4128902;28;20457;-43
2023/02/09 04:16:50;;;;;;;0.60;0.50;;;;;;;;;;4146951;28;20521;-43
2023/02/09 04:18:51;;;;;;;0.65;0.52;;;;;;;;;;4146227;28;20053;-42
2023/02/09 04:20:53;;;;;;;0.90;0.55;;;;;;;;;;4129383;28;20141;-43
2023/02/09 04:22:54;;;;;;;0.45;0.40;;;;;;;;;;4146793;28;20050;-43
2023/02/09 04:24:55;;;;;;;0.32;0.30;;;;;;;;;;4128885;28;20140;-43
2023/02/09 04:26:56;;;;;;;0.65;0.45;;;;;;;;;;4146326;28;20516;-43
2023/02/09 04:28:58;;;;;;;1.45;0.50;;;;;;;;;;4146449;28;20080;-44
2023/02/09 04:31:00;;;;;;;1.38;0.60;;;;;;;;;;4113451;28;20239;-43
2023/02/09 04:33:01;;;;;;;1.00;0.60;;;;;;;;;;4146503;28;20108;-43
2023/02/09 04:35:02;;;;;;;0.30;0.30;;;;;;;;;;4146130;28;20107;-43
2023/02/09 04:37:03;;;;;;;1.45;0.57;;;;;;;;;;4146639;28;20061;-43
2023/02/09 04:39:04;;;;;;;0.40;0.40;;;;;;;;;;4146314;28;20398;-43
2023/02/09 04:41:06;;;;;;;1.02;0.45;;;;;;;;;;4146269;28;20505;-43
2023/02/09 04:43:07;;;;;;;2.42;0.80;;;;;;;;;;4146231;28;20077;-43
2023/02/09 04:45:08;;;;;;;0.93;0.45;;;;;;;;;;4128508;28;20054;-44
2023/02/09 04:47:10;;;;;;;0.80;0.68;;;;;;;;;;4146587;28;20120;-43
2023/02/09 04:49:11;;;;;;;1.05;0.52;;;;;;;;;;4146000;28;20054;-43
2023/02/09 04:51:13;;;;;;;0.50;0.50;;;;;;;;;;4146639;28;20053;-43
2023/02/09 04:53:15;;;;;;;0.63;0.50;;;;;;;;;;4128956;28;20137;-42
2023/02/09 04:55:16;;;;;;;0.90;0.45;;;;;;;;;;4146553;28;20525;-43
2023/02/09 04:59:39;;;;;;;1.10;0.57;;;;;;;;;;4146005;28;20501;-43
2023/02/09 05:01:40;;;;;;;0.93;0.65;;;;;;;;;;4146397;28;20053;-43
2023/02/09 05:03:41;;;;;;;0.73;0.73;;;;;;;;;;4146002;28;20155;-43
2023/02/09 05:05:43;;;;;;;1.77;0.77;;;;;;;;;;4146532;28;20426;-43
2023/02/09 05:07:45;;;;;;;0.60;0.60;;;;;;;;;;4146303;28;20456;-43
2023/02/09 05:09:46;;;;;;;0.50;0.40;;;;;;;;;;4146132;28;20049;-43
2023/02/09 05:11:48;;;;;;;0.50;0.50;;;;;;;;;;4148579;28;20513;-43
2023/02/09 05:13:49;;;;;;;0.70;0.60;;;;;;;;;;4149008;28;20054;-43
2023/02/09 05:15:52;;;;;;;1.08;0.70;;;;;;;;;;4135891;28;20062;-43
2023/02/09 05:17:53;;;;;;;0.85;0.80;;;;;;;;;;4149140;28;20107;-43
2023/02/09 05:19:55;;;;;;;1.38;0.70;;;;;;;;;;4148827;28;20066;-43
2023/02/09 05:21:58;;;;;;;1.15;0.60;;;;;;;;;;4149399;28;20479;-43
2023/02/09 05:23:59;;;;;;;0.80;0.75;;;;;;;;;;4149251;28;20108;-43
2023/02/09 05:26:01;;;;;;;0.88;0.68;;;;;;;;;;4149381;28;20557;-43
2023/02/09 05:28:02;;;;;;;1.08;0.60;;;;;;;;;;4131576;28;20058;-42
2023/02/09 05:30:04;;;;;;;0.80;0.60;;;;;;;;;;4149197;28;20069;-43
2023/02/09 05:32:06;;;;;;;1.05;0.65;;;;;;;;;;4148530;28;20061;-43
2023/02/09 05:34:07;;;;;;;0.73;0.60;;;;;;;;;;4130950;28;20529;-43
2023/02/09 05:36:09;;;;;;;3.38;0.90;;;;;;;;;;4148883;28;20050;-43
2023/02/09 05:38:10;;;;;;;1.27;0.80;;;;;;;;;;4148276;28;20054;-43
2023/02/09 05:40:11;;;;;;;0.80;0.60;;;;;;;;;;4131302;28;20058;-43
2023/02/09 05:42:16;;;;;;;1.00;0.68;;;;;;;;;;4148750;28;20513;-43
2023/02/09 05:44:18;;;;;;;2.40;0.70;;;;;;;;;;4131346;28;20058;-43
2023/02/09 05:46:20;;;;;;;2.53;0.70;;;;;;;;;;4154206;28;20057;-43
2023/02/09 05:48:21;;;;;;;1.52;0.77;;;;;;;;;;4151114;28;20333;-43
2023/02/09 05:50:22;;;;;;;1.25;0.80;;;;;;;;;;4148865;28;20104;-43
2023/02/09 05:52:28;;;;;;;2.67;1.10;;;;;;;;;;4131698;28;20065;-42
2023/02/09 05:54:30;;;;;;;1.48;1.00;;;;;;;;;;4147924;28;20085;-43
2023/02/09 05:56:31;;;;;;;1.20;1.05;;;;;;;;;;4129991;28;20121;-43
2023/02/09 05:58:33;;;;;;;2.55;0.95;;;;;;;;;;4148544;28;20739;-43
2023/02/09 06:00:34;;;;;;;2.45;1.00;;;;;;;;;;4143798;28;20054;-42
2023/02/09 06:02:36;;;;;;;1.45;0.70;;;;;;;;;;4139184;28;20486;-43
2023/02/09 06:04:37;;;;;;;1.17;0.70;;;;;;;;;;4146118;28;20086;-42
2023/02/09 06:06:38;;;;;;;4.05;1.05;;;;;;;;;;4145989;28;20394;-43
2023/02/09 06:08:40;;;;;;;0.85;0.73;;;;;;;;;;4141375;28;20053;-43
2023/02/09 06:10:41;;;;;;;4.13;0.95;;;;;;;;;;4120843;28;20443;-42
2023/02/09 06:12:43;;;;;;;1.77;1.00;;;;;;;;;;4140802;28;20417;-43
2023/02/09 06:14:44;;;;;;;2.33;0.68;;;;;;;;;;4128452;28;20105;-43
2023/02/09 06:16:45;;;;;;;2.65;1.00;;;;;;;;;;4146286;28;20062;-43
2023/02/09 06:18:47;;;;;;;2.65;1.23;;;;;;;;;;4145651;28;20053;-43
2023/02/09 06:20:49;;;;;;;1.58;1.15;;;;;;;;;;4146414;28;20061;-42
2023/02/09 06:22:50;;;;;;;0.93;0.82;;;;;;;;;;4144997;28;20156;-42
2023/02/09 06:24:51;;;;;;;1.20;0.82;;;;;;;;;;4145660;28;20473;-43
2023/02/09 06:26:55;;;;;;;2.95;0.98;;;;;;;;;;4128133;28;20513;-43
2023/02/09 06:28:56;;;;;;;0.77;0.70;;;;;;;;;;4143984;28;20394;-43
2023/02/09 06:30:57;;;;;;;1.23;1.08;;;;;;;;;;4142427;28;20061;-43
2023/02/09 06:32:58;;;;;;;1.55;0.98;;;;;;;;;;4144331;28;20053;-43
2023/02/09 06:35:00;;;;;;;1.25;0.95;;;;;;;;;;4145625;28;20061;-42
2023/02/09 06:37:01;;;;;;;2.53;1.20;;;;;;;;;;4135409;28;20054;-43
2023/02/09 06:39:07;;;;;;;1.15;0.65;;;;;;;;;;4145229;28;20438;-42
2023/02/09 06:41:08;;;;;;;1.52;0.88;;;;;;;;;;4145215;28;20112;-43
2023/02/09 06:43:09;;;;;;;2.05;1.10;;;;;;;;;;4110305;28;20059;-43
2023/02/09 06:45:15;;;;;;;1.85;1.17;;;;;;;;;;4143609;28;20049;-42
2023/02/09 06:47:16;;;;;;;2.35;1.17;;;;;;;;;;4142285;28;20057;-42
2023/02/09 06:49:20;;;;;;;3.45;1.17;;;;;;;;;;4138992;28;20069;-43
2023/02/09 06:51:21;;;;;;;1.88;1.30;;;;;;;;;;4144665;28;20058;-42
2023/02/09 06:53:23;;;;;;;2.15;1.30;;;;;;;;;;4144412;28;20050;-42
2023/02/09 06:55:24;;;;;;;1.88;1.63;;;;;;;;;;4138918;28;20517;-43
2023/02/09 06:57:25;;;;;;;2.00;1.15;;;;;;;;;;4130848;28;20383;-43
2023/02/09 06:59:26;;;;;;;2.70;2.10;;;;;;;;;;4139892;28;20098;-42
2023/02/09 07:01:28;;;;;;;3.28;1.70;;;;;;;;;;4142578;28;20057;-43
2023/02/09 07:03:29;;;;;;;2.65;1.42;;;;;;;;;;4144057;28;20054;-42
2023/02/09 07:05:30;;;;;;;4.22;1.60;;;;;;;;;;4141984;28;20046;-43
2023/02/09 07:07:31;;;;;;;1.70;1.38;;;;;;;;;;4117450;28;20058;-43
2023/02/09 07:09:33;;;;;;;2.42;1.40;;;;;;;;;;4136015;28;20193;-43
2023/02/09 07:11:34;;;;;;;4.45;1.63;;;;;;;;;;4099188;28;20395;-43
2023/02/09 07:13:36;;;;;;;3.10;1.48;;;;;;;;;;4133466;28;20112;-44
2023/02/09 07:15:38;;;;;;;3.20;1.80;;;;;;;;;;4116558;28;20053;-43
2023/02/09 07:17:39;;;;;;;2.70;1.70;;;;;;;;;;4128928;28;20061;-43
2023/02/09 07:19:40;;;;;;;3.35;1.83;;;;;;;;;;4136167;28;20088;-42
2023/02/09 07:21:42;;;;;;;2.78;1.55;;;;;;;;;;4133480;28;20143;-43
2023/02/09 07:23:43;;;;;;;4.25;1.85;;;;;;;;;;4118060;28;20498;-42
2023/02/09 07:25:44;;;;;;;5.07;1.98;;;;;;;;;;4134760;28;20484;-43
2023/02/09 07:27:46;;;;;;;5.05;2.00;;;;;;;;;;4129328;28;20050;-44
2023/02/09 07:29:47;;;;;;;4.53;2.10;;;;;;;;;;4125786;28;20065;-43
2023/02/09 07:31:49;;;;;;;3.42;1.90;;;;;;;;;;4129191;28;20167;-43
2023/02/09 07:33:52;;;;;;;2.67;1.48;;;;;;;;;;4132855;28;20064;-42
2023/02/09 07:35:53;;;;;;;6.20;1.83;;;;;;;;;;4130388;28;20672;-43
2023/02/09 07:37:54;;;;;;;1.58;1.33;;;;;;;;;;4126605;28;20108;-42
2023/02/09 07:39:56;;;;;;;8.30;1.88;;;;;;;;;;4131302;28;20061;-45
2023/02/09 07:41:57;;;;;;;4.80;2.10;;;;;;;;;;4107387;28;20505;-44
2023/02/09 07:44:04;;;;;;;6.13;2.35;;;;;;;;;;4109122;28;20061;-46
2023/02/09 07:46:06;;;;;;;5.82;1.73;;;;;;;;;;4128520;28;20057;-47
2023/02/09 07:48:09;;;;;;;5.15;2.00;;;;;;;;;;4128113;28;20077;-47
2023/02/09 07:50:10;;;;;;;4.25;1.83;;;;;;;;;;4123214;28;20060;-45
2023/02/09 07:52:12;;;;;;;3.97;2.03;;;;;;;;;;4130231;28;20061;-44
2023/02/09 07:54:13;;;;;;;3.92;1.98;;;;;;;;;;4130593;28;20104;-46
2023/02/09 07:56:15;;;;;;;5.55;2.17;;;;;;;;;;4120955;28;20053;-46
2023/02/09 07:58:18;;;;;;;4.15;1.98;;;;;;;;;;4125843;28;20069;-45
2023/02/09 08:00:21;;;;;;;3.38;1.90;;;;;;;;;;4113846;28;20282;-43
2023/02/09 08:02:27;;;;;;;6.68;2.00;;;;;;;;;;4111970;28;20552;-43
2023/02/09 08:04:28;;;;;;;5.30;2.15;;;;;;;;;;4114589;28;20524;-43
2023/02/09 08:06:41;;;;;;;3.58;2.15;;;;;;;;;;4119421;28;20057;-42
2023/02/09 08:08:44;;;;;;;5.00;2.28;;;;;;;;;;4123231;28;20148;-43
2023/02/09 08:10:45;;;;;;;4.05;2.47;;;;;;;;;;4101917;28;20254;-44
2023/02/09 08:12:59;;;;;;;6.40;2.40;;;;;;;;;;4104204;28;20869;-44
2023/02/09 08:15:01;;;;;;;9.00;2.83;;;;;;;;;;4087878;28;20058;-43
2023/02/09 08:17:19;;;;;;;4.55;1.95;;;;;;;;;;4114977;28;20152;-43
2023/02/09 08:19:23;;;;;;;2.70;1.92;;;;;;;;;;4101039;28;20051;-43
2023/02/09 08:21:25;;;;;;;3.58;2.05;;;;;;;;;;4125676;28;21542;-43
2023/02/09 08:23:31;;;;;;;6.00;2.63;;;;;;;;;;4104302;28;20064;-43
2023/02/09 08:25:33;;;;;;;2.95;2.08;;;;;;;;;;4129624;28;20057;-44
2023/02/09 08:27:36;;;;;;;6.53;2.40;;;;;;;;;;4082927;28;20821;-42
2023/02/09 08:29:37;;;;;;;4.93;2.70;;;;;;;;;;4111984;28;20207;-43
2023/02/09 08:31:39;;;;;;;4.75;2.05;;;;;;;;;;4115862;28;20054;-43
2023/02/09 08:33:41;;;;;;;4.32;2.53;;;;;;;;;;4111744;28;20062;-43
2023/02/09 08:35:43;;;;;;;6.78;2.15;;;;;;;;;;4106871;28;20054;-43
2023/02/09 08:37:45;;;;;;;4.53;2.42;;;;;;;;;;4120094;28;20053;-43
2023/02/09 08:39:46;;;;;;;4.78;2.83;;;;;;;;;;4123306;28;20161;-43
2023/02/09 08:41:47;;;;;;;3.90;2.42;;;;;;;;;;4115351;28;20050;-44
2023/02/09 08:43:50;;;;;;;4.93;2.47;;;;;;;;;;4110165;28;20054;-42
2023/02/09 08:45:52;;;;;;;4.93;2.30;;;;;;;;;;4113707;28;20058;-43
2023/02/09 08:47:53;;;;;;;7.28;2.50;;;;;;;;;;4095854;28;20058;-43
2023/02/09 08:49:54;;;;;;;6.20;2.75;;;;;;;;;;4101984;28;20553;-43
2023/02/09 08:51:56;;;;;;;4.90;2.60;;;;;;;;;;4113430;28;21735;-43
2023/02/09 08:53:57;;;;;;;5.72;2.47;;;;;;;;;;4121786;28;20543;-42
2023/02/09 08:55:58;;;;;;;6.90;2.42;;;;;;;;;;4118929;28;21628;-43
2023/02/09 08:57:59;;;;;;;4.13;2.22;;;;;;;;;;4114791;28;20061;-43
2023/02/09 09:00:00;;;;;;;5.53;2.67;;;;;;;;;;4123230;28;20543;-44
2023/02/09 09:02:02;;;;;;;4.65;2.20;;;;;;;;;;4107914;28;20346;-45
2023/02/09 09:04:03;;;;;;;3.58;2.50;;;;;;;;;;4117692;28;20673;-43
2023/02/09 09:06:06;;;;;;;7.45;2.28;;;;;;;;;;4091103;28;20069;-43
2023/02/09 09:08:08;;;;;;;7.30;2.50;;;;;;;;;;4119063;28;20054;-43
2023/02/09 09:10:09;;;;;;;4.28;2.50;;;;;;;;;;4110748;28;20085;-43
2023/02/09 09:12:10;;;;;;;5.50;2.72;;;;;;;;;;4109840;28;20513;-42
2023/02/09 09:14:12;;;;;;;6.13;2.58;;;;;;;;;;4113336;28;20049;-45
2023/02/09 09:16:16;;;;;;;5.57;2.63;;;;;;;;;;4125114;28;20741;-42
2023/02/09 09:18:17;;;;;;;4.80;2.45;;;;;;;;;;4125939;28;20108;-42
2023/02/09 09:20:19;;;;;;;4.40;2.50;;;;;;;;;;4115672;28;20522;-43
2023/02/09 09:22:24;;;;;;;3.75;2.38;;;;;;;;;;4124902;28;20437;-42
2023/02/09 09:24:27;;;;;;;7.00;2.63;;;;;;;;;;4125520;28;20603;-42
2023/02/09 09:26:28;;;;;;;7.38;2.38;;;;;;;;;;4125628;28;20065;-43
2023/02/09 09:28:30;;;;;;;5.47;2.75;;;;;;;;;;4125068;28;20061;-42
2023/02/09 09:30:31;;;;;;;5.47;2.10;;;;;;;;;;4101545;28;20062;-45
2023/02/09 09:32:32;;;;;;;6.15;2.42;;;;;;;;;;4119519;28;20062;-43
2023/02/09 09:34:34;;;;;;;2.40;1.95;;;;;;;;;;4120352;28;20116;-43
2023/02/09 09:36:35;;;;;;;4.38;2.38;;;;;;;;;;4121985;28;20484;-43
2023/02/09 09:38:37;;;;;;;4.00;2.30;;;;;;;;;;4125556;28;20532;-42
2023/02/09 09:40:40;;;;;;;4.25;2.20;;;;;;;;;;4125942;28;21430;-44
2023/02/09 09:42:47;;;;;;;3.58;2.20;;;;;;;;;;4104215;28;20050;-45
2023/02/09 09:44:49;;;;;;;4.10;2.38;;;;;;;;;;4104655;28;20058;-42
2023/02/09 09:46:52;;;;;;;4.20;1.88;;;;;;;;;;4099489;28;20807;-43
2023/02/09 09:48:55;;;;;;;2.95;2.15;;;;;;;;;;4121588;28;20062;-42
2023/02/09 09:50:58;;;;;;;2.95;2.40;;;;;;;;;;4123039;28;20054;-43
2023/02/09 09:53:13;;;;;;;9.23;3.13;;;;;;;;;;4100483;28;20058;-43
2023/02/09 09:55:24;;;;;;;5.43;2.20;;;;;;;;;;4099797;28;20066;-43
2023/02/09 09:57:30;;;;;;;3.10;2.25;;;;;;;;;;4098368;28;20144;-44
2023/02/09 09:59:37;;;;;;;4.53;2.35;;;;;;;;;;4089022;28;20065;-43
2023/02/09 10:01:38;;;;;;;3.22;2.22;;;;;;;;;;4088120;28;20134;-43
2023/02/09 10:03:40;;;;;;;5.22;2.30;;;;;;;;;;4115647;28;20099;-43
2023/02/09 10:05:42;;;;;;;4.70;2.45;;;;;;;;;;4117437;28;20058;-43
2023/02/09 10:07:49;;;;;;;3.17;2.05;;;;;;;;;;4114754;28;20784;-43
2023/02/09 10:09:59;;;;;;;2.90;2.10;;;;;;;;;;4096796;28;20100;-43
2023/02/09 10:12:14;;;;;;;2.97;2.05;;;;;;;;;;4111896;28;20066;-41
2023/02/09 10:14:15;;;;;;;5.80;2.30;;;;;;;;;;4099057;28;20081;-43
2023/02/09 10:16:26;;;;;;;5.30;2.63;;;;;;;;;;4124730;28;20409;-44
2023/02/09 10:18:28;;;;;;;4.45;2.47;;;;;;;;;;4087934;28;20129;-43
2023/02/09 10:20:51;;;;;;;2.65;2.00;;;;;;;;;;4123532;28;20054;-43
2023/02/09 10:22:52;;;;;;;2.67;2.40;;;;;;;;;;4121990;28;20481;-43
2023/02/09 10:24:54;;;;;;;2.53;2.20;;;;;;;;;;4106353;28;20512;-43
2023/02/09 10:27:00;;;;;;;4.30;2.28;;;;;;;;;;4116337;28;20058;-43
2023/02/09 10:29:11;;;;;;;5.22;2.15;;;;;;;;;;4113364;28;20058;-43
2023/02/09 10:31:22;;;;;;;2.17;1.98;;;;;;;;;;4115879;28;20073;-43
2023/02/09 10:33:24;;;;;;;2.78;1.92;;;;;;;;;;4121766;28;20100;-43
2023/02/09 10:35:31;;;;;;;3.17;2.08;;;;;;;;;;4119522;28;20069;-43
2023/02/09 10:37:33;;;;;;;3.35;2.20;;;;;;;;;;4101693;28;20105;-43
2023/02/09 10:39:34;;;;;;;3.45;2.42;;;;;;;;;;4111649;28;20100;-43
2023/02/09 10:41:37;;;;;;;4.22;2.35;;;;;;;;;;4106296;28;20081;-43
2023/02/09 10:43:38;;;;;;;3.72;2.20;;;;;;;;;;4119369;28;20092;-43
2023/02/09 10:45:41;;;;;;;3.50;2.33;;;;;;;;;;4109844;28;20054;-43
2023/02/09 10:48:06;;;;;;;2.50;1.95;;;;;;;;;;4121314;28;20061;-44
2023/02/09 10:50:10;;;;;;;2.08;1.70;;;;;;;;;;4087792;28;20066;-45
2023/02/09 10:52:12;;;;;;;3.28;2.10;;;;;;;;;;4124232;28;20057;-43
2023/02/09 10:54:19;;;;;;;3.80;2.38;;;;;;;;;;4106985;28;20816;-44
2023/02/09 10:56:27;;;;;;;3.95;2.33;;;;;;;;;;4113492;28;20144;-42
2023/02/09 10:58:30;;;;;;;3.15;2.25;;;;;;;;;;4119429;28;20124;-43
2023/02/09 11:00:37;;;;;;;5.47;2.35;;;;;;;;;;4096031;28;20062;-44
2023/02/09 11:02:42;;;;;;;3.95;2.45;;;;;;;;;;4099889;28;20669;-43
2023/02/09 11:04:45;;;;;;;3.58;2.22;;;;;;;;;;4110132;28;20061;-43
2023/02/09 11:06:54;;;;;;;4.30;2.40;;;;;;;;;;4121142;28;20108;-44
2023/02/09 11:09:02;;;;;;;3.65;2.45;;;;;;;;;;4121203;28;20438;-42
2023/02/09 11:11:19;;;;;;;4.05;2.40;;;;;;;;;;4106828;28;20077;-42
2023/02/09 11:13:23;;;;;;;2.63;1.85;;;;;;;;;;4116869;28;20053;-42
2023/02/09 11:15:27;;;;;;;3.45;2.15;;;;;;;;;;4119231;28;20061;-42
2023/02/09 11:17:35;;;;;;;8.00;2.15;;;;;;;;;;4122408;28;21492;-42
2023/02/09 11:20:01;;;;;;;4.32;2.30;;;;;;;;;;4126598;28;20183;-39
2023/02/09 11:22:11;;;;;;;4.97;2.30;;;;;;;;;;4128015;28;20502;-39
2023/02/09 11:24:42;;;;;;;2.47;1.90;;;;;;;;;;4130687;28;20053;-39
2023/02/09 11:26:50;;;;;;;2.95;2.22;;;;;;;;;;4128141;28;20065;-39
2023/02/09 11:29:08;;;;;;;5.35;2.20;;;;;;;;;;4110004;28;20538;-39
2023/02/09 11:31:46;;;;;;;2.65;1.88;;;;;;;;;;4099537;28;20054;-39
2023/02/09 11:33:59;;;;;;;3.05;2.25;;;;;;;;;;4121100;28;20630;-39
2023/02/09 11:36:06;;;;;;;3.72;2.28;;;;;;;;;;4122879;28;20248;-38
2023/02/09 11:38:16;;;;;;;4.03;2.67;;;;;;;;;;4103987;28;21560;-38
2023/02/09 11:40:35;;;;;;;2.58;1.92;;;;;;;;;;4105139;28;20414;-38
2023/02/09 11:42:43;;;;;;;3.15;2.30;;;;;;;;;;4121362;28;20061;-38
2023/02/09 11:44:52;;;;;;;2.40;1.98;;;;;;;;;;4127716;28;20058;-39
2023/02/09 11:47:01;;;;;;;2.28;1.90;;;;;;;;;;4123133;28;20120;-38
2023/02/09 11:49:06;;;;;;;2.78;1.90;;;;;;;;;;4108857;28;20470;-38
2023/02/09 11:51:14;;;;;;;5.32;2.50;;;;;;;;;;4122331;28;20143;-38
2023/02/09 11:53:29;;;;;;;4.70;2.35;;;;;;;;;;4133358;28;20089;-40
2023/02/09 11:55:35;;;;;;;2.60;2.10;;;;;;;;;;4124356;28;20058;-39
2023/02/09 11:57:44;;;;;;;3.95;2.25;;;;;;;;;;4099441;28;20058;-38
2023/02/09 11:59:55;;;;;;;3.08;2.25;;;;;;;;;;4098979;28;20112;-39
2023/02/09 12:02:15;;;;;;;2.75;2.13;;;;;;;;;;4099970;28;21018;-38
2023/02/09 12:04:23;;;;;;;3.40;1.85;;;;;;;;;;4107858;28;20060;-38
2023/02/09 12:06:26;;;;;;;4.05;2.42;;;;;;;;;;4099030;28;20058;-37
2023/02/09 12:08:57;;;;;;;3.47;2.22;;;;;;;;;;4091195;28;20080;-37
2023/02/09 12:11:22;;;;;;;2.30;2.10;;;;;;;;;;4106530;28;20116;-37
2023/02/09 12:13:32;;;;;;;4.97;2.40;;;;;;;;;;4117452;28;20505;-38
2023/02/09 12:15:43;;;;;;;;;;;;;;;;;;4098096;28;20058;-38
2023/02/09 12:18:04;;;;;;;4.30;2.20;;;;;;;;;;4094083;28;19984;-39
2023/02/09 12:20:20;;;;;;;2.80;1.95;;;;;;;;;;4099196;28;20054;-38
2023/02/09 12:22:33;;;;;;;3.97;2.00;;;;;;;;;;4099952;28;20054;-37
2023/02/09 12:24:39;;;;;;;2.55;1.95;;;;;;;;;;4107501;28;20097;-37
2023/02/09 12:26:42;;;;;;;3.13;1.95;;;;;;;;;;4084103;28;20058;-38
2023/02/09 12:28:46;;;;;;;3.08;1.98;;;;;;;;;;4089608;28;20104;-37
2023/02/09 12:30:48;;;;;;;3.20;2.42;;;;;;;;;;4111219;28;20058;-38
2023/02/09 12:32:49;;;;;;;3.45;2.20;;;;;;;;;;4099918;28;20186;-38
2023/02/09 12:34:53;;;;;;;2.92;1.92;;;;;;;;;;4086888;28;21094;-39
2023/02/09 12:37:08;;;;;;;3.67;2.28;;;;;;;;;;4084506;28;20223;-38